Weather observations for the past three days for
Spearfish / Clyde Ice
Metric (Imperial)
Date Time (mdt) Wind (kph) Vis. (km) Weather Sky Cond. Temperature (ºC) Relative Humidity Wind Chill (°C) Heat Index (°C) Pressure Precipitation (cm)
Air Dwpt 6 hour altimeter (cm) sea level (mb) 1 hr 3 hr 6 hr
Max. Min.
30 20:35 SW 7 16.09 Fair CLR 17 9 60% 76.2 0.0
30 20:15 W 9 16.09 Fair CLR 17 9 60% 76.17 0.0
30 19:55 NW 6 16.09 Fair CLR 18 9 56% 76.12 0.0
30 19:35 SW 9 16.09 Fair CLR 17 9 60% 76.1 0.0
30 19:15 W 7 16.09 Fair CLR 18 9 56% 76.1 0.0
30 18:55 SW 13 16.09 Fair CLR 19 9 52% 76.1 0.0
30 18:35 W 15 16.09 Fair CLR 18 9 56% 76.1 0.0
30 18:15 W 15 G 24 16.09 Fair CLR 19 9 52% 76.15 0.0
30 17:55 NW 28 16.09 Fair CLR 17 9 60% 76.2 0.0
30 17:35 NW 22 G 31 16.09 Fair CLR 18 9 56% 76.17 0.0
30 17:15 W 20 G 33 16.09 Fair CLR 18 9 56% 76.17 0.0
30 16:55 NW 24 G 39 16.09 A Few Clouds FEW110 18 9 56% 76.17 0.0
30 16:35 NW 33 G 52 16.09 A Few Clouds and Breezy FEW110 18 10 60% 76.15 0.0
30 16:15 NW 52 G 76 16.09 A Few Clouds and Windy FEW120 18 11 64% 76.1 0.0
30 15:55 NW 63 G 80 16.09 Partly Cloudy and Windy FEW100 SCT120 30 7 24% 28 75.95 0.0
30 15:35 W 17 G 28 16.09 Partly Cloudy SCT100 SCT120 30 7 24% 28 75.79 0.0
30 15:15 W 22 16.09 A Few Clouds FEW110 31 7 22% 29 75.79 0.0
30 14:55 Vrbl 7 G 20 16.09 Fair CLR 31 10 27% 29 75.79 0.0
30 14:35 E 9 G 24 16.09 Fair CLR 30 10 29% 29 75.82 0.0
30 14:15 E 11 16.09 Fair CLR 30 10 29% 29 75.84 0.0
30 13:55 NE 15 16.09 A Few Clouds FEW085 29 10 31% 28 75.84 0.0
30 13:35 Calm 16.09 Partly Cloudy SCT075 SCT085 28 10 32% 27 75.84 0.0
30 13:15 N 11 G 30 16.09 Partly Cloudy SCT075 SCT085 29 10 31% 28 75.87 0.0
30 12:35 Vrbl 7 G 22 16.09 Fair CLR 30 10 29% 29 75.82 0.0
30 12:15 NE 13 G 24 16.09 Fair CLR 30 10 29% 29 75.84 0.0
30 11:55 Vrbl 7 G 20 16.09 Fair CLR 29 10 31% 28 75.84 0.0
30 11:35 N 13 16.09 Fair CLR 29 10 31% 28 75.9 0.0
30 11:15 NW 7 16.09 Fair CLR 27 10 34% 27 75.9 0.0
30 10:55 Vrbl 7 16.09 Fair CLR 28 10 32% 27 75.92 0.0
30 10:35 Calm 16.09 Fair CLR 28 10 32% 27 75.92 0.0
30 10:15 Calm 16.09 Fair CLR 27 10 34% 27 75.92 0.0
30 09:55 W 7 16.09 Fair CLR 26 11 39% 26 75.92 0.0
30 09:35 Vrbl 11 16.09 Fair CLR 26 11 39% 26 75.92 0.0
30 09:15 W 13 16.09 Fair CLR 25 11 42% 26 75.95 0.0
30 08:55 W 11 16.09 Fair CLR 23 11 47% 75.92 0.0
30 08:35 Calm 16.09 Fair CLR 22 11 50% 75.92 0.0
30 08:15 Calm 16.09 Fair CLR 21 11 53% 75.92 0.0
30 07:55 W 9 16.09 Fair CLR 21 11 53% 75.92 0.0
30 07:35 W 7 16.09 Fair CLR 20 11 56% 75.92 0.0
30 07:15 W 7 16.09 Fair CLR 20 11 56% 75.92 0.0
30 06:55 W 9 16.09 Fair CLR 19 11 60% 75.92 0.0
30 06:35 W 19 16.09 Fair CLR 20 11 56% 75.87 0.0
30 06:15 W 15 16.09 Fair CLR 20 11 56% 75.9 0.0
30 05:55 W 13 16.09 Fair CLR 19 11 60% 75.9 0.0
30 05:35 Calm 16.09 Fair CLR 17 11 68% 75.9 0.0
30 05:15 Calm 16.09 Fair CLR 16 11 72% 75.9 0.0
30 04:55 Calm 16.09 Fair CLR 18 11 64% 75.87 0.0
30 04:35 SW 9 16.09 Fair CLR 18 11 64% 75.87 0.0
30 04:15 NW 9 16.09 Fair CLR 19 11 60% 75.9 0.0
30 03:55 NW 13 16.09 Fair CLR 20 11 56% 75.9 0.0
30 03:35 Calm 16.09 Fair CLR 18 10 60% 75.9 0.0
30 03:15 Calm 16.09 Fair CLR 18 10 60% 75.87 0.0
30 02:55 Calm 16.09 Fair CLR 17 10 64% 75.87 0.0
30 02:35 Calm 16.09 Fair CLR 17 10 64% 75.87 0.0
30 02:15 W 7 16.09 Fair CLR 20 10 53% 75.84 0.0
30 01:55 W 13 16.09 Fair CLR 20 10 53% 75.84 0.0
30 01:35 W 15 16.09 Fair CLR 20 10 53% 75.84 0.0
30 01:15 W 15 16.09 Fair CLR 18 11 64% 75.82 0.0
30 00:55 SW 13 16.09 Fair CLR 17 12 73% 75.82 0.0
30 00:35 Calm 16.09 Fair CLR 17 12 73% 75.84 0.0
29 23:55 W 9 16.09 Fair CLR 20 13 64% 75.87 0.0
29 23:35 W 7 16.09 Fair CLR 19 14 73% 75.87 0.0
29 23:15 W 11 16.09 Fair CLR 20 14 69% 75.87 0.0
29 22:55 NW 7 16.09 Fair CLR 19 14 73% 75.9 0.0
29 22:35 NW 7 16.09 Fair CLR 20 14 69% 75.9 0.0
29 22:15 NW 9 16.09 Fair CLR 21 14 64% 75.92 0.0
29 21:35 NW 9 16.09 Mostly Cloudy BKN085 23 12 50% 75.87 0.0
29 21:15 W 7 16.09 Overcast OVC085 24 12 47% 25 75.87 0.0
29 20:55 W 13 16.09 Overcast OVC090 25 12 44% 26 75.87 0.0
29 20:35 NE 7 16.09 Overcast BKN100 OVC120 24 12 47% 25 75.82 0.0
29 20:15 Calm 16.09 Partly Cloudy SCT110 24 11 44% 25 75.82 0.0
29 19:55 S 15 G 24 16.09 A Few Clouds FEW120 25 11 42% 26 75.82 0.0
29 19:35 S 20 16.09 Fair CLR 25 12 44% 26 75.82 0.0
29 19:15 SE 9 G 22 16.09 Partly Cloudy FEW050 FEW065 SCT075 26 13 45% 26 75.82 0.0
29 18:55 S 17 G 26 16.09 Mostly Cloudy FEW050 SCT065 BKN085 27 13 42% 27 75.84 0.0
29 18:35 S 13 16.09 Mostly Cloudy BKN085 28 12 37% 27 75.84 0.0
29 18:15 S 13 16.09 Fair CLR 28 12 37% 27 75.84 0.0
29 17:55 SE 9 16.09 Partly Cloudy SCT085 28 12 37% 27 75.82 0.0
29 17:35 SE 15 16.09 Partly Cloudy SCT085 SCT100 30 11 31% 29 75.84 0.0
29 17:15 E 11 16.09 A Few Clouds FEW100 30 11 31% 29 75.84 0.0
29 16:55 SE 17 16.09 Fair CLR 31 11 29% 30 75.84 0.0
29 16:35 SE 11 16.09 A Few Clouds FEW120 30 10 29% 29 75.87 0.0
29 16:15 SE 13 G 24 16.09 Fair CLR 31 10 27% 29 75.87 0.0
29 15:55 NE 9 G 20 16.09 Fair CLR 31 11 29% 30 75.87 0.0
29 15:35 E 17 G 35 16.09 Fair CLR 31 10 27% 29 75.87 0.0
29 15:15 NE 17 G 28 16.09 Fair CLR 30 10 29% 29 75.9 0.0
29 14:55 E 15 G 30 16.09 Fair CLR 30 10 29% 29 75.92 0.0
29 14:35 E 17 16.09 Fair CLR 30 10 29% 29 75.92 0.0
29 14:15 Vrbl 9 G 26 16.09 Fair CLR 30 10 29% 29 75.95 0.0
29 13:55 NE 13 16.09 A Few Clouds FEW095 30 11 31% 29 75.95 0.0
29 13:35 NE 17 16.09 A Few Clouds FEW090 29 10 31% 28 75.95 0.0
29 13:15 NE 13 16.09 Fair CLR 29 10 31% 28 75.97 0.0
29 12:55 Vrbl 6 G 22 16.09 Fair CLR 29 11 33% 28 75.97 0.0
29 12:35 Vrbl 11 G 22 16.09 Fair CLR 28 10 32% 27 76 0.0
29 11:55 N 22 16.09 Fair CLR 28 10 32% 27 76 0.0
29 11:35 N 19 16.09 Fair CLR 29 10 31% 28 76 0.0
29 10:15 Vrbl 6 16.09 Fair CLR 28 10 32% 27 76.02 0.0
29 09:55 NW 11 16.09 Fair CLR 28 11 35% 27 76.05 0.0
29 09:35 Vrbl 7 16.09 Fair CLR 27 10 34% 27 76.05 0.0
29 09:15 Calm 16.09 Fair CLR 26 10 37% 26 76.02 0.0
29 08:55 Calm 16.09 Fair CLR 26 10 37% 26 76.05 0.0
29 08:35 W 7 16.09 Fair CLR 24 10 41% 25 76.05 0.0
29 08:15 W 7 16.09 Fair CLR 23 10 44% 76.1 0.0
29 07:55 W 11 16.09 Fair CLR 22 10 47% 76.12 0.0
29 07:35 W 13 16.09 Fair CLR 21 10 50% 76.1 0.0
29 07:15 W 9 16.09 Fair CLR 19 10 56% 76.1 0.0
29 06:55 Calm 16.09 Fair CLR 17 10 64% 76.1 0.0
29 06:35 S 13 16.09 Fair CLR 18 11 64% 76.07 0.0
29 06:15 W 7 16.09 Fair CLR 18 10 60% 76.07 0.0
29 05:55 W 9 16.09 Fair CLR 17 10 64% 76.07 0.0
29 05:35 W 7 16.09 Fair CLR 17 11 68% 76.05 0.0
29 05:15 S 9 16.09 Fair CLR 17 11 68% 76.02 0.0
29 04:55 S 9 16.09 Fair CLR 17 10 64% 76.02 0.0
29 04:35 Calm 16.09 Fair CLR 17 10 64% 76.05 0.0
29 04:15 Calm 16.09 Fair CLR 18 10 60% 76.07 0.0
29 03:55 Calm 16.09 Fair CLR 18 10 60% 76.1 0.0
29 03:35 S 11 16.09 Fair CLR 18 10 60% 76.1 0.0
29 03:15 W 6 16.09 Fair CLR 18 10 60% 76.1 0.0
29 02:55 Calm 16.09 Fair CLR 18 10 60% 76.1 0.0
29 02:35 Calm 16.09 Fair CLR 18 10 60% 76.1 0.0
29 02:15 Calm 16.09 Fair CLR 18 10 60% 76.1 0.0
29 01:55 S 17 16.09 Fair CLR 19 10 56% 76.1 0.0
29 01:35 Calm 16.09 A Few Clouds FEW110 19 10 56% 76.12 0.0
29 01:15 Calm 16.09 Partly Cloudy SCT110 19 10 56% 76.12 0.0
29 00:55 Calm 16.09 Fair CLR 19 10 56% 76.15 0.0
29 00:35 SW 7 16.09 Fair CLR 20 10 53% 76.12 0.0
29 00:15 Calm 16.09 Fair CLR 20 10 53% 76.15 0.0
28 23:55 Calm 16.09 Fair CLR 20 10 53% 76.15 0.0
28 23:35 SW 6 16.09 Fair CLR 21 10 50% 76.15 0.0
28 23:15 SW 9 16.09 Fair CLR 21 10 50% 76.17 0.0
28 22:55 SW 13 16.09 Fair CLR 21 10 50% 76.17 0.0
28 22:35 SW 11 16.09 Fair CLR 21 10 50% 76.17 0.0
28 22:15 SW 7 16.09 Fair CLR 22 10 47% 76.17 0.0
28 21:55 W 7 16.09 Fair CLR 23 10 44% 76.2 0.0
28 21:35 W 11 16.09 Partly Cloudy SCT120 23 10 44% 76.2 0.0
28 21:15 W 11 16.09 Mostly Cloudy BKN120 24 10 41% 25 76.2 0.0
28 20:55 SW 7 16.09 Mostly Cloudy BKN120 24 10 41% 25 76.2 0.0
28 20:35 W 9 16.09 Mostly Cloudy BKN120 25 10 39% 26 76.2 0.0
28 20:15 NW 13 G 22 16.09 Mostly Cloudy BKN120 25 10 39% 26 76.2 0.0
28 19:55 NW 17 G 28 16.09 A Few Clouds FEW120 26 10 37% 26 76.17 0.0
28 19:35 NW 26 16.09 Fair CLR 26 10 37% 26 76.12 0.0
28 19:15 NE 11 16.09 Fair CLR 28 12 37% 27 76.1 0.0
28 18:55 N 11 16.09 Fair CLR 29 8 27% 28 76.1 0.0
28 18:35 N 9 G 30 16.09 Fair CLR 30 9 27% 29 76.1 0.0
28 18:15 N 13 16.09 Fair CLR 30 7 24% 28 76.07 0.0
28 17:55 Vrbl 7 16.09 Fair CLR 31 7 22% 29 76.07 0.0
28 17:35 N 15 16.09 Fair CLR 31 8 24% 29 76.1 0.0
28 17:15 N 13 16.09 A Few Clouds FEW120 32 10 26% 30 76.1 0.0
28 16:55 N 13 16.09 Mostly Cloudy BKN120 31 9 25% 29 76.12 0.0
28 16:35 N 26 16.09 A Few Clouds FEW120 32 7 21% 30 76.1 0.0
28 16:15 NW 19 G 30 16.09 Fair CLR 33 7 20% 31 76.1 0.0
28 15:55 NW 20 G 31 16.09 Fair CLR 33 7 20% 31 76.07 0.0
28 15:35 NW 24 G 33 16.09 Fair CLR 34 7 19% 32 76.07 0.0
28 15:15 NW 11 G 24 16.09 Fair CLR 34 8 20% 32 76.1 0.0
28 14:55 Vrbl 9 16.09 Fair CLR 32 9 24% 30 76.1 0.0
28 14:35 Calm 16.09 Fair CLR 31 10 27% 29 76.1 0.0
28 14:15 Calm 16.09 Fair CLR 32 11 27% 31 76.12 0.0
28 13:55 NE 11 G 22 16.09 Fair CLR 31 11 29% 30 76.15 0.0
28 13:35 N 15 16.09 Fair CLR 32 11 27% 31 76.17 0.0
28 13:15 N 13 G 26 16.09 Fair CLR 31 11 29% 30 76.17 0.0
28 12:55 NE 20 16.09 Fair CLR 32 12 29% 31 76.17 0.0
28 12:35 N 20 16.09 Fair CLR 32 12 29% 31 76.15 0.0
28 12:15 N 20 16.09 Fair CLR 32 10 26% 30 76.15 0.0
28 11:55 NE 20 16.09 Fair CLR 33 10 24% 31 76.15 0.0
28 11:35 NE 11 16.09 Fair CLR 32 9 24% 30 76.17 0.0
28 11:15 NE 13 16.09 Fair CLR 32 9 24% 30 76.17 0.0
28 10:55 NE 13 16.09 Fair CLR 32 9 24% 30 76.17 0.0
28 10:35 N 9 16.09 Fair CLR 31 8 24% 29 76.15 0.0
28 10:15 NE 7 16.09 Fair CLR 30 9 27% 29 76.17 0.0
28 09:55 Calm 16.09 Fair CLR 29 9 29% 28 76.15 0.0
28 09:35 Calm 16.09 Fair CLR 27 10 34% 27 76.17 0.0
28 09:15 SW 11 16.09 Fair CLR 26 10 37% 26 76.2 0.0
28 08:55 W 11 16.09 Fair CLR 25 11 42% 26 76.2 0.0
28 08:35 SW 17 16.09 Fair CLR 23 12 50% 76.23 0.0
28 08:15 NW 9 16.09 Fair CLR 23 11 47% 76.23 0.0
28 07:55 W 7 16.09 Fair CLR 24 10 41% 25 76.2 0.0
28 07:35 Calm 16.09 Fair CLR 21 11 53% 76.2 0.0
28 07:15 Calm 16.09 Fair CLR 22 10 47% 76.2 0.0
28 06:55 Calm 16.09 Fair CLR 20 10 53% 76.23 0.0
28 06:35 SW 11 16.09 Fair CLR 19 9 52% 76.23 0.0
28 05:55 Calm 16.09 Fair CLR 21 9 46% 76.2 0.0
28 05:35 Calm 16.09 Fair CLR 21 9 46% 76.23 0.0
28 05:15 W 9 16.09 Fair CLR 22 9 44% 76.23 0.0
28 04:55 SW 13 16.09 Fair CLR 20 10 53% 76.23 0.0
28 04:35 W 11 16.09 Fair CLR 21 10 50% 76.23 0.0
28 04:15 W 15 16.09 Fair CLR 21 10 50% 76.23 0.0
28 03:55 W 11 16.09 Fair CLR 22 9 44% 76.23 0.0
28 03:35 W 9 16.09 Fair CLR 21 8 43% 76.23 0.0
28 03:15 Calm 16.09 Fair CLR 22 8 41% 76.23 0.0
28 02:55 Vrbl 7 16.09 Fair CLR 22 9 44% 76.23 0.0
28 02:35 NE 13 16.09 Fair CLR 23 9 41% 76.23 0.0
28 02:15 N 13 16.09 Fair CLR 23 8 38% 76.25 0.0
28 01:55 Calm 16.09 Fair CLR 23 9 41% 76.25 0.0
28 01:35 Calm 16.09 Fair CLR 22 9 44% 76.25 0.0
28 01:15 NW 7 16.09 Fair CLR 25 10 39% 26 76.28 0.0
28 00:55 NW 11 16.09 Fair CLR 24 10 41% 25 76.3 0.0
28 00:35 Calm 16.09 Fair CLR 25 9 36% 26 76.28 0.0
28 00:15 Calm 16.09 Fair CLR 26 9 34% 26 76.3 0.0
27 23:55 Vrbl 7 16.09 Fair CLR 27 9 32% 27 76.3 0.0
27 23:35 E 13 16.09 Fair CLR 25 9 36% 26 76.3 0.0
27 23:15 E 13 16.09 Fair CLR 24 10 41% 25 76.3 0.0
27 22:55 SE 9 G 20 16.09 Fair CLR 24 9 39% 25 76.3 0.0
27 22:15 SE 19 16.09 Fair CLR 25 9 36% 26 76.33 0.0
27 21:55 SE 15 16.09 Fair CLR 24 9 39% 25 76.33 0.0
27 21:35 SE 13 16.09 Fair CLR 25 8 34% 26 76.33 0.0
27 21:15 Calm 16.09 Fair CLR 25 9 36% 26 76.33 0.0
27 20:55 Calm 16.09 Fair CLR 25 9 36% 26 76.33 0.0
Date Time (mdt) Wind (kph) Vis. (km) Weather Sky Cond. Air Dwpt Max. Min. Relative Humidity Wind Chill (°C) Heat Index (°C) altimeter (cm) sea level (mb) 1 hr 3 hr 6 hr
6 hour
Temperature (ºC) Pressure Precipitation (cm)